Airfield :







YOU CAN JOIN US ON...

 
LOGIN :

Register | Disclaimer

   EN    FR    IT 

 









Legend :    VFR   Marginal VFR   IFR   Intensive IFR   Very Intensive IFR
Visi :
Ceiling :
>= 8 km
>= 3000ft
5 to 8 km
1000 to 3000 ft
1500m to 5 km
500 to 1000 ft
800 to 1500m
200 to 500 ft
< 800m
< 200 ft
Symbols :   Thunderstorms  Fog  Heavy snow  Heavy precipitations  Wind > 20 kt







- Airport Elevation : 118 ft
- IATA code : YUL


CYUL - Montréal - Pierre-Elliott-Trudeau Int.

CURRENT METAR :
  • 210100Z 08009KT 15SM OVC095 M05/M11 A3021 RMK AC8 PRESFR SLP234

EXPIRED METARs :
  • 210000Z 10006KT 15SM BKN100 OVC150 M06/M11 A3027 RMK AC6AC2 PRESFR SLP255
  • 202300Z 07006KT 15SM BKN100 OVC150 M06/M12 A3032 RMK AC6AC2 SLP273

TAF TAF CYUL
Valid from the 21 at 00:00 until the 22 at 00:00 UTC


202338Z 2100/2124 07006KT P6SM OVC100
FM210500 09008G18KT 6SM -SN OVC040
TEMPO 2105/2106 1SM -SN VV010
FM210600 11008G18KT 3/4SM -SN VV008
TEMPO 2106/2109 21/2SM -SN OVC015
FM210900 13012G22KT 11/2SM -SN SCT008 OVC020
PROB30 2109/2111 4SM -FZDZ BR BKN008 OVC020
FM211100 15012KT 3SM -FZDZ -SN BR BKN008 OVC015
FM211300 13006KT 11/2SM -FZDZ BR OVC006
FM211600 24010G20KT P6SM BKN030
BECMG 2116/2118 25020G30KT RMK NXT FCST BY 210300Z
ATIS : ENG : +1 514-633-3037 FRA : +1 514-633-3034
CZUL FIR / North America



MET'MAP, your aeronautical weather chart ! - Copyright ORBIFLY December 2007 - Disclaimer

ORBIFLY MET'MAP TEAM :

Programming & Development : Alexandra Zaïnal
Concept & Development : Baudouin d'Aumeries
Co-Development & Prog : Marc-Olivier Méhu
Technical & hardware support : Manuel Goepfert

Contact : metmap@orbifly.com




SOURCES & CREDITS :

   NOAA